sensor_id;sensor_type;location;lat;lon;timestamp;pressure;altitude;pressure_sealevel;temperature;humidity
76940;BME280;65885;55.848;35.916;2023-04-21T00:00:23;99470.28;;;2.46;35.20
76940;BME280;65885;55.848;35.916;2023-04-21T00:02:51;99474.63;;;2.44;35.42
76940;BME280;65885;55.848;35.916;2023-04-21T00:05:18;99472.84;;;2.50;35.50
76940;BME280;65885;55.848;35.916;2023-04-21T00:07:45;99473.59;;;2.63;35.61
76940;BME280;65885;55.848;35.916;2023-04-21T00:10:13;99468.31;;;2.75;35.37
76940;BME280;65885;55.848;35.916;2023-04-21T00:12:42;99468.19;;;2.88;34.95
76940;BME280;65885;55.848;35.916;2023-04-21T00:15:09;99464.63;;;2.98;34.66
76940;BME280;65885;55.848;35.916;2023-04-21T00:17:37;99462.81;;;3.06;35.42
76940;BME280;65885;55.848;35.916;2023-04-21T00:20:06;99467.91;;;3.14;35.65
76940;BME280;65885;55.848;35.916;2023-04-21T00:22:35;99470.47;;;3.18;34.36
76940;BME280;65885;55.848;35.916;2023-04-21T00:25:03;99464.41;;;3.19;34.59
76940;BME280;65885;55.848;35.916;2023-04-21T00:27:30;99454.09;;;3.13;34.81
76940;BME280;65885;55.848;35.916;2023-04-21T00:29:59;99463.72;;;3.00;34.70
76940;BME280;65885;55.848;35.916;2023-04-21T00:32:26;99453.50;;;2.87;34.47
76940;BME280;65885;55.848;35.916;2023-04-21T00:34:54;99456.25;;;2.71;35.06
76940;BME280;65885;55.848;35.916;2023-04-21T00:37:21;99457.25;;;2.57;34.67
76940;BME280;65885;55.848;35.916;2023-04-21T00:39:48;99453.94;;;2.42;34.51
76940;BME280;65885;55.848;35.916;2023-04-21T00:42:16;99458.34;;;2.30;35.31
76940;BME280;65885;55.848;35.916;2023-04-21T00:44:44;99450.69;;;2.17;34.77
76940;BME280;65885;55.848;35.916;2023-04-21T00:47:13;99447.31;;;2.06;35.68
76940;BME280;65885;55.848;35.916;2023-04-21T00:49:41;99454.31;;;1.97;34.91
76940;BME280;65885;55.848;35.916;2023-04-21T00:52:08;99450.91;;;1.87;34.99
76940;BME280;65885;55.848;35.916;2023-04-21T00:54:36;99458.69;;;1.79;35.15
76940;BME280;65885;55.848;35.916;2023-04-21T00:57:04;99449.22;;;1.78;35.17
76940;BME280;65885;55.848;35.916;2023-04-21T00:59:33;99450.94;;;1.84;34.92
76940;BME280;65885;55.848;35.916;2023-04-21T01:02:00;99450.84;;;1.94;35.72
76940;BME280;65885;55.848;35.916;2023-04-21T01:04:29;99445.59;;;2.07;35.20
76940;BME280;65885;55.848;35.916;2023-04-21T01:07:03;99448.09;;;2.17;34.91
76940;BME280;65885;55.848;35.916;2023-04-21T01:09:32;99442.84;;;2.27;34.64
76940;BME280;65885;55.848;35.916;2023-04-21T01:12:00;99448.84;;;2.35;35.51
76940;BME280;65885;55.848;35.916;2023-04-21T01:14:28;99451.34;;;2.41;34.92
76940;BME280;65885;55.848;35.916;2023-04-21T01:16:55;99446.97;;;2.47;33.96
76940;BME280;65885;55.848;35.916;2023-04-21T01:19:23;99440.06;;;2.51;34.37
76940;BME280;65885;55.848;35.916;2023-04-21T01:21:54;99441.81;;;2.50;34.05
76940;BME280;65885;55.848;35.916;2023-04-21T01:24:23;99450.50;;;2.43;37.65
76940;BME280;65885;55.848;35.916;2023-04-21T01:26:50;99448.00;;;2.30;36.90
76940;BME280;65885;55.848;35.916;2023-04-21T01:29:18;99458.47;;;2.14;35.09
76940;BME280;65885;55.848;35.916;2023-04-21T01:31:45;99461.16;;;1.99;35.61
76940;BME280;65885;55.848;35.916;2023-04-21T01:34:13;99456.94;;;1.86;35.40
76940;BME280;65885;55.848;35.916;2023-04-21T01:36:41;99458.75;;;1.72;35.93
76940;BME280;65885;55.848;35.916;2023-04-21T01:39:09;99465.72;;;1.60;37.16
76940;BME280;65885;55.848;35.916;2023-04-21T01:41:37;99460.59;;;1.51;37.81
76940;BME280;65885;55.848;35.916;2023-04-21T01:44:05;99455.44;;;1.41;37.23
76940;BME280;65885;55.848;35.916;2023-04-21T01:46:33;99457.19;;;1.34;39.24
76940;BME280;65885;55.848;35.916;2023-04-21T01:49:00;99452.91;;;1.27;38.35
76940;BME280;65885;55.848;35.916;2023-04-21T01:51:27;99443.47;;;1.23;39.62
76940;BME280;65885;55.848;35.916;2023-04-21T01:53:56;99457.25;;;1.25;40.20
76940;BME280;65885;55.848;35.916;2023-04-21T01:56:25;99442.59;;;1.31;38.82
76940;BME280;65885;55.848;35.916;2023-04-21T01:58:52;99441.66;;;1.46;37.96
76940;BME280;65885;55.848;35.916;2023-04-21T02:01:20;99435.53;;;1.62;37.94
76940;BME280;65885;55.848;35.916;2023-04-21T02:03:47;99432.00;;;1.77;37.36
76940;BME280;65885;55.848;35.916;2023-04-21T02:06:14;99434.50;;;1.91;37.28
76940;BME280;65885;55.848;35.916;2023-04-21T02:08:42;99426.66;;;2.02;37.02
76940;BME280;65885;55.848;35.916;2023-04-21T02:11:10;99431.78;;;2.12;37.44
76940;BME280;65885;55.848;35.916;2023-04-21T02:13:39;99435.13;;;2.19;36.65
76940;BME280;65885;55.848;35.916;2023-04-21T02:16:07;99436.88;;;2.18;36.33
76940;BME280;65885;55.848;35.916;2023-04-21T02:18:34;99426.59;;;2.12;36.08
76940;BME280;65885;55.848;35.916;2023-04-21T02:21:05;99430.13;;;2.01;36.38
76940;BME280;65885;55.848;35.916;2023-04-21T02:23:32;99434.50;;;1.88;37.12
76940;BME280;65885;55.848;35.916;2023-04-21T02:25:59;99438.03;;;1.76;36.53
76940;BME280;65885;55.848;35.916;2023-04-21T02:28:27;99446.72;;;1.64;37.68
76940;BME280;65885;55.848;35.916;2023-04-21T02:30:57;99448.50;;;1.55;39.08
76940;BME280;65885;55.848;35.916;2023-04-21T02:33:25;99442.53;;;1.45;38.24
76940;BME280;65885;55.848;35.916;2023-04-21T02:35:52;99447.72;;;1.37;38.01
76940;BME280;65885;55.848;35.916;2023-04-21T02:38:20;99444.31;;;1.31;38.00
76940;BME280;65885;55.848;35.916;2023-04-21T02:40:47;99452.06;;;1.26;39.63
76940;BME280;65885;55.848;35.916;2023-04-21T02:43:15;99443.47;;;1.29;38.32
76940;BME280;65885;55.848;35.916;2023-04-21T02:45:43;99449.44;;;1.40;37.92
76940;BME280;65885;55.848;35.916;2023-04-21T02:48:12;99445.91;;;1.55;37.49
76940;BME280;65885;55.848;35.916;2023-04-21T02:50:42;99446.69;;;1.71;38.68
76940;BME280;65885;55.848;35.916;2023-04-21T02:53:09;99449.19;;;1.84;38.07
76940;BME280;65885;55.848;35.916;2023-04-21T02:55:37;99445.69;;;1.88;37.68
76940;BME280;65885;55.848;35.916;2023-04-21T02:58:04;99438.84;;;1.86;36.77
76940;BME280;65885;55.848;35.916;2023-04-21T03:00:32;99444.91;;;1.80;36.59
76940;BME280;65885;55.848;35.916;2023-04-21T03:02:59;99450.13;;;1.73;37.20
76940;BME280;65885;55.848;35.916;2023-04-21T03:05:28;99451.88;;;1.64;37.70
76940;BME280;65885;55.848;35.916;2023-04-21T03:07:56;99454.50;;;1.58;37.50
76940;BME280;65885;55.848;35.916;2023-04-21T03:10:23;99448.53;;;1.52;37.86
76940;BME280;65885;55.848;35.916;2023-04-21T03:12:51;99455.44;;;1.47;37.88
76940;BME280;65885;55.848;35.916;2023-04-21T03:15:19;99452.84;;;1.42;36.88
76940;BME280;65885;55.848;35.916;2023-04-21T03:17:47;99451.16;;;1.38;37.17
76940;BME280;65885;55.848;35.916;2023-04-21T03:20:15;99450.28;;;1.36;38.40
76940;BME280;65885;55.848;35.916;2023-04-21T03:22:44;99460.63;;;1.41;38.29
76940;BME280;65885;55.848;35.916;2023-04-21T03:25:11;99450.22;;;1.54;38.69
76940;BME280;65885;55.848;35.916;2023-04-21T03:27:39;99454.44;;;1.71;38.34
76940;BME280;65885;55.848;35.916;2023-04-21T03:30:07;99460.38;;;1.91;37.59
76940;BME280;65885;55.848;35.916;2023-04-21T03:32:35;99455.91;;;2.10;37.58
76940;BME280;65885;55.848;35.916;2023-04-21T03:35:02;99458.38;;;2.28;37.35
76940;BME280;65885;55.848;35.916;2023-04-21T03:37:30;99456.53;;;2.44;38.07
76940;BME280;65885;55.848;35.916;2023-04-21T03:39:59;99457.31;;;2.52;40.04
76940;BME280;65885;55.848;35.916;2023-04-21T03:42:27;99457.28;;;2.54;39.90
76940;BME280;65885;55.848;35.916;2023-04-21T03:44:55;99458.16;;;2.53;40.06
76940;BME280;65885;55.848;35.916;2023-04-21T03:47:22;99459.91;;;2.52;41.78
76940;BME280;65885;55.848;35.916;2023-04-21T03:49:50;99460.75;;;2.53;41.69
76940;BME280;65885;55.848;35.916;2023-04-21T03:52:17;99463.31;;;2.54;39.74
76940;BME280;65885;55.848;35.916;2023-04-21T03:54:44;99459.00;;;2.58;39.93
76940;BME280;65885;55.848;35.916;2023-04-21T03:57:13;99461.50;;;2.64;38.99
76940;BME280;65885;55.848;35.916;2023-04-21T03:59:43;99464.91;;;2.70;39.13
76940;BME280;65885;55.848;35.916;2023-04-21T04:02:10;99456.19;;;2.77;40.39
76940;BME280;65885;55.848;35.916;2023-04-21T04:04:37;99456.09;;;2.88;41.13
76940;BME280;65885;55.848;35.916;2023-04-21T04:07:05;99453.38;;;2.99;40.99
76940;BME280;65885;55.848;35.916;2023-04-21T04:09:35;99448.81;;;3.22;42.20
76940;BME280;65885;55.848;35.916;2023-04-21T04:12:02;99448.47;;;3.50;40.71
76940;BME280;65885;55.848;35.916;2023-04-21T04:14:31;99447.22;;;3.80;41.25
76940;BME280;65885;55.848;35.916;2023-04-21T04:16:59;99446.78;;;4.07;40.33
76940;BME280;65885;55.848;35.916;2023-04-21T04:19:29;99444.63;;;4.35;39.76
76940;BME280;65885;55.848;35.916;2023-04-21T04:21:58;99440.75;;;4.59;39.58
76940;BME280;65885;55.848;35.916;2023-04-21T04:24:26;99446.41;;;4.83;39.84
76940;BME280;65885;55.848;35.916;2023-04-21T04:26:54;99441.81;;;4.97;39.30
76940;BME280;65885;55.848;35.916;2023-04-21T04:29:22;99452.06;;;5.05;39.33
76940;BME280;65885;55.848;35.916;2023-04-21T04:31:53;99445.03;;;5.10;40.10
76940;BME280;65885;55.848;35.916;2023-04-21T04:34:21;99450.16;;;5.14;41.71
76940;BME280;65885;55.848;35.916;2023-04-21T04:36:49;99447.41;;;5.20;40.91
76940;BME280;65885;55.848;35.916;2023-04-21T04:39:16;99453.31;;;5.30;41.03
76940;BME280;65885;55.848;35.916;2023-04-21T04:41:44;99453.88;;;5.44;42.71
76940;BME280;65885;55.848;35.916;2023-04-21T04:44:11;99450.97;;;5.60;42.86
76940;BME280;65885;55.848;35.916;2023-04-21T04:46:41;99452.31;;;5.77;42.23
76940;BME280;65885;55.848;35.916;2023-04-21T04:49:10;99446.72;;;5.96;42.28
76940;BME280;65885;55.848;35.916;2023-04-21T04:51:38;99442.75;;;6.17;41.69
76940;BME280;65885;55.848;35.916;2023-04-21T04:54:05;99445.75;;;6.37;41.51
76940;BME280;65885;55.848;35.916;2023-04-21T04:56:32;99444.38;;;6.56;41.98
76940;BME280;65885;55.848;35.916;2023-04-21T04:59:00;99445.66;;;6.76;41.35
76940;BME280;65885;55.848;35.916;2023-04-21T05:01:27;99446.00;;;6.94;41.37
76940;BME280;65885;55.848;35.916;2023-04-21T05:03:56;99446.28;;;7.16;41.40
76940;BME280;65885;55.848;35.916;2023-04-21T05:06:24;99442.28;;;7.36;41.81
76940;BME280;65885;55.848;35.916;2023-04-21T05:08:53;99442.50;;;7.58;41.04
76940;BME280;65885;55.848;35.916;2023-04-21T05:11:20;99445.13;;;7.86;40.79
76940;BME280;65885;55.848;35.916;2023-04-21T05:13:48;99445.91;;;8.17;40.50
76940;BME280;65885;55.848;35.916;2023-04-21T05:16:16;99440.53;;;8.50;40.33
76940;BME280;65885;55.848;35.916;2023-04-21T05:18:44;99433.25;;;8.84;39.63
76940;BME280;65885;55.848;35.916;2023-04-21T05:21:11;99427.81;;;9.15;38.98
76940;BME280;65885;55.848;35.916;2023-04-21T05:23:40;99431.94;;;9.44;39.22
76940;BME280;65885;55.848;35.916;2023-04-21T05:26:08;99429.59;;;9.62;39.25
76940;BME280;65885;55.848;35.916;2023-04-21T05:28:35;99428.31;;;9.72;38.31
76940;BME280;65885;55.848;35.916;2023-04-21T05:31:03;99417.53;;;9.80;38.38
76940;BME280;65885;55.848;35.916;2023-04-21T05:33:30;99417.31;;;9.86;38.34
76940;BME280;65885;55.848;35.916;2023-04-21T05:35:57;99418.72;;;9.94;38.34
76940;BME280;65885;55.848;35.916;2023-04-21T05:38:25;99420.03;;;10.05;38.11
76940;BME280;65885;55.848;35.916;2023-04-21T05:40:55;99417.78;;;10.17;38.26
76940;BME280;65885;55.848;35.916;2023-04-21T05:43:22;99411.13;;;10.32;38.33
76940;BME280;65885;55.848;35.916;2023-04-21T05:45:50;99411.25;;;10.49;38.14
76940;BME280;65885;55.848;35.916;2023-04-21T05:48:17;99415.69;;;10.69;38.34
76940;BME280;65885;55.848;35.916;2023-04-21T05:50:44;99411.22;;;10.92;38.04
76940;BME280;65885;55.848;35.916;2023-04-21T05:53:12;99407.50;;;11.16;38.28
76940;BME280;65885;55.848;35.916;2023-04-21T05:55:39;99412.38;;;11.44;38.57
76940;BME280;65885;55.848;35.916;2023-04-21T05:58:08;99409.19;;;11.75;38.37
76940;BME280;65885;55.848;35.916;2023-04-21T06:00:35;99410.31;;;12.07;38.49
76940;BME280;65885;55.848;35.916;2023-04-21T06:03:03;99402.34;;;12.45;38.33
76940;BME280;65885;55.848;35.916;2023-04-21T06:05:31;99405.66;;;12.83;38.58
76940;BME280;65885;55.848;35.916;2023-04-21T06:07:59;99395.75;;;13.23;37.42
76940;BME280;65885;55.848;35.916;2023-04-21T06:10:26;99393.41;;;13.66;37.45
76940;BME280;65885;55.848;35.916;2023-04-21T06:12:55;99399.78;;;14.09;37.21
76940;BME280;65885;55.848;35.916;2023-04-21T06:15:24;99397.44;;;14.50;36.97
76940;BME280;65885;55.848;35.916;2023-04-21T06:17:52;99397.06;;;14.86;35.65
76940;BME280;65885;55.848;35.916;2023-04-21T06:20:20;99400.13;;;15.23;34.77
76940;BME280;65885;55.848;35.916;2023-04-21T06:22:47;99398.69;;;15.60;34.05
76940;BME280;65885;55.848;35.916;2023-04-21T06:25:15;99391.94;;;15.97;33.30
76940;BME280;65885;55.848;35.916;2023-04-21T06:27:42;99396.44;;;16.36;32.88
76940;BME280;65885;55.848;35.916;2023-04-21T06:30:10;99397.72;;;16.71;32.25
76940;BME280;65885;55.848;35.916;2023-04-21T06:32:39;99389.78;;;16.96;32.06
76940;BME280;65885;55.848;35.916;2023-04-21T06:35:08;99397.00;;;17.19;31.90
76940;BME280;65885;55.848;35.916;2023-04-21T06:37:35;99389.66;;;17.36;30.82
76940;BME280;65885;55.848;35.916;2023-04-21T06:40:03;99384.34;;;17.48;30.61
76940;BME280;65885;55.848;35.916;2023-04-21T06:42:31;99371.28;;;17.58;30.14
76940;BME280;65885;55.848;35.916;2023-04-21T06:45:03;99374.22;;;17.66;30.16
76940;BME280;65885;55.848;35.916;2023-04-21T06:47:32;99377.31;;;17.73;29.26
76940;BME280;65885;55.848;35.916;2023-04-21T06:50:05;99376.16;;;17.77;28.47
76940;BME280;65885;55.848;35.916;2023-04-21T06:52:35;99378.69;;;17.79;29.52
76940;BME280;65885;55.848;35.916;2023-04-21T06:55:03;99374.00;;;17.82;28.00
76940;BME280;65885;55.848;35.916;2023-04-21T06:57:34;99373.16;;;17.82;28.94
76940;BME280;65885;55.848;35.916;2023-04-21T07:00:06;99376.22;;;17.88;29.67
76940;BME280;65885;55.848;35.916;2023-04-21T07:02:45;99373.00;;;17.96;29.53
76940;BME280;65885;55.848;35.916;2023-04-21T07:05:21;99374.91;;;18.07;28.21
76940;BME280;65885;55.848;35.916;2023-04-21T07:07:50;99361.25;;;18.11;27.67
76940;BME280;65885;55.848;35.916;2023-04-21T07:10:20;99359.00;;;18.18;26.54
76940;BME280;65885;55.848;35.916;2023-04-21T07:12:51;99358.69;;;18.22;26.75
76940;BME280;65885;55.848;35.916;2023-04-21T07:15:25;99367.13;;;18.27;25.78
76940;BME280;65885;55.848;35.916;2023-04-21T07:18:02;99361.59;;;18.30;26.07
76940;BME280;65885;55.848;35.916;2023-04-21T07:20:36;99353.06;;;18.38;26.53
76940;BME280;65885;55.848;35.916;2023-04-21T07:23:03;99355.34;;;18.43;25.78
76940;BME280;65885;55.848;35.916;2023-04-21T07:25:31;99357.44;;;18.50;25.67
76940;BME280;65885;55.848;35.916;2023-04-21T07:27:59;99347.72;;;18.62;26.13
76940;BME280;65885;55.848;35.916;2023-04-21T07:30:27;99349.22;;;18.89;26.01
76940;BME280;65885;55.848;35.916;2023-04-21T07:32:56;99349.16;;;19.24;25.26
76940;BME280;65885;55.848;35.916;2023-04-21T07:35:24;99341.66;;;19.62;25.12
76940;BME280;65885;55.848;35.916;2023-04-21T07:37:53;99347.84;;;20.06;24.84
76940;BME280;65885;55.848;35.916;2023-04-21T07:40:21;99342.97;;;20.43;23.92
76940;BME280;65885;55.848;35.916;2023-04-21T07:42:48;99341.31;;;20.84;24.21
76940;BME280;65885;55.848;35.916;2023-04-21T07:45:15;99335.81;;;21.27;24.29
76940;BME280;65885;55.848;35.916;2023-04-21T07:47:43;99340.06;;;21.80;23.64
76940;BME280;65885;55.848;35.916;2023-04-21T07:50:11;99338.72;;;22.34;23.55
76940;BME280;65885;55.848;35.916;2023-04-21T07:52:38;99339.53;;;22.83;23.04
76940;BME280;65885;55.848;35.916;2023-04-21T07:55:07;99334.19;;;23.30;22.32
76940;BME280;65885;55.848;35.916;2023-04-21T07:57:35;99331.53;;;23.67;22.38
76940;BME280;65885;55.848;35.916;2023-04-21T08:00:04;99335.97;;;23.94;22.12
76940;BME280;65885;55.848;35.916;2023-04-21T08:02:32;99322.63;;;24.12;21.57
76940;BME280;65885;55.848;35.916;2023-04-21T08:04:59;99325.84;;;24.33;21.70
76940;BME280;65885;55.848;35.916;2023-04-21T08:07:27;99321.47;;;24.50;21.29
76940;BME280;65885;55.848;35.916;2023-04-21T08:09:55;99321.88;;;24.63;21.39
76940;BME280;65885;55.848;35.916;2023-04-21T08:12:24;99328.03;;;24.73;20.74
76940;BME280;65885;55.848;35.916;2023-04-21T08:14:51;99323.72;;;24.80;20.51
76940;BME280;65885;55.848;35.916;2023-04-21T08:17:18;99326.75;;;24.85;20.29
76940;BME280;65885;55.848;35.916;2023-04-21T08:19:46;99334.50;;;24.88;19.13
76940;BME280;65885;55.848;35.916;2023-04-21T08:22:14;99323.78;;;24.71;19.01
76940;BME280;65885;55.848;35.916;2023-04-21T08:24:41;99323.28;;;24.67;19.36
76940;BME280;65885;55.848;35.916;2023-04-21T08:27:09;99316.44;;;24.73;20.31
76940;BME280;65885;55.848;35.916;2023-04-21T08:29:38;99313.78;;;24.73;18.64
76940;BME280;65885;55.848;35.916;2023-04-21T08:32:05;99305.88;;;24.71;19.18
76940;BME280;65885;55.848;35.916;2023-04-21T08:34:33;99314.44;;;24.75;19.50
76940;BME280;65885;55.848;35.916;2023-04-21T08:37:00;99304.94;;;24.80;19.33
76940;BME280;65885;55.848;35.916;2023-04-21T08:39:28;99308.47;;;24.81;19.23
76940;BME280;65885;55.848;35.916;2023-04-21T08:41:57;99303.38;;;24.78;19.12
76940;BME280;65885;55.848;35.916;2023-04-21T08:44:25;99304.72;;;24.74;18.99
76940;BME280;65885;55.848;35.916;2023-04-21T08:46:54;99300.13;;;24.66;18.88
76940;BME280;65885;55.848;35.916;2023-04-21T08:49:23;99286.13;;;24.54;18.97
76940;BME280;65885;55.848;35.916;2023-04-21T08:51:52;99287.97;;;24.54;19.51
76940;BME280;65885;55.848;35.916;2023-04-21T08:54:20;99289.50;;;24.56;18.67
76940;BME280;65885;55.848;35.916;2023-04-21T08:56:48;99289.66;;;24.55;18.75
76940;BME280;65885;55.848;35.916;2023-04-21T08:59:15;99283.59;;;24.53;18.57
76940;BME280;65885;55.848;35.916;2023-04-21T09:02:12;99279.56;;;24.49;19.47
76940;BME280;65885;55.848;35.916;2023-04-21T09:04:43;99275.72;;;24.51;19.46
76940;BME280;65885;55.848;35.916;2023-04-21T09:07:11;99276.25;;;24.55;19.03
76940;BME280;65885;55.848;35.916;2023-04-21T09:10:00;99277.06;;;24.55;18.67
76940;BME280;65885;55.848;35.916;2023-04-21T09:12:31;99268.50;;;24.52;18.94
76940;BME280;65885;55.848;35.916;2023-04-21T09:14:58;99266.47;;;24.46;18.86
76940;BME280;65885;55.848;35.916;2023-04-21T09:17:29;99273.81;;;24.44;19.24
76940;BME280;65885;55.848;35.916;2023-04-21T09:20:12;99271.44;;;24.41;18.75
76940;BME280;65885;55.848;35.916;2023-04-21T09:22:40;99266.41;;;24.38;19.00
76940;BME280;65885;55.848;35.916;2023-04-21T09:25:07;99261.34;;;24.34;18.90
76940;BME280;65885;55.848;35.916;2023-04-21T09:27:35;99266.41;;;24.38;19.07
76940;BME280;65885;55.848;35.916;2023-04-21T09:30:03;99248.78;;;24.35;18.84
76940;BME280;65885;55.848;35.916;2023-04-21T09:32:37;99254.88;;;24.45;19.36
76940;BME280;65885;55.848;35.916;2023-04-21T09:35:09;99250.81;;;24.59;18.75
76940;BME280;65885;55.848;35.916;2023-04-21T09:37:37;99244.47;;;24.68;18.89
76940;BME280;65885;55.848;35.916;2023-04-21T09:40:05;99240.50;;;24.72;19.09
76940;BME280;65885;55.848;35.916;2023-04-21T09:42:33;99245.53;;;24.75;18.88
76940;BME280;65885;55.848;35.916;2023-04-21T09:45:01;99233.78;;;24.76;18.77
76940;BME280;65885;55.848;35.916;2023-04-21T09:47:32;99233.31;;;24.81;19.17
76940;BME280;65885;55.848;35.916;2023-04-21T09:50:06;99227.41;;;24.77;18.58
76940;BME280;65885;55.848;35.916;2023-04-21T09:52:37;99229.81;;;24.80;18.93
76940;BME280;65885;55.848;35.916;2023-04-21T09:55:11;99223.94;;;24.85;19.30
76940;BME280;65885;55.848;35.916;2023-04-21T09:57:40;99220.78;;;24.89;19.09
76940;BME280;65885;55.848;35.916;2023-04-21T10:00:10;99223.63;;;24.88;18.68
76940;BME280;65885;55.848;35.916;2023-04-21T10:02:42;99215.41;;;24.89;18.96
76940;BME280;65885;55.848;35.916;2023-04-21T10:05:11;99222.13;;;24.94;19.19
76940;BME280;65885;55.848;35.916;2023-04-21T10:07:39;99218.78;;;24.91;19.19
76940;BME280;65885;55.848;35.916;2023-04-21T10:10:10;99207.72;;;24.86;18.72
76940;BME280;65885;55.848;35.916;2023-04-21T10:12:39;99212.59;;;24.99;18.76
76940;BME280;65885;55.848;35.916;2023-04-21T10:15:28;99207.34;;;25.24;19.20
76940;BME280;65885;55.848;35.916;2023-04-21T10:18:10;99194.16;;;25.46;18.95
76940;BME280;65885;55.848;35.916;2023-04-21T10:20:51;99195.53;;;25.59;18.75
76940;BME280;65885;55.848;35.916;2023-04-21T10:23:31;99198.56;;;25.64;18.58
76940;BME280;65885;55.848;35.916;2023-04-21T10:26:04;99200.75;;;25.68;18.44
76940;BME280;65885;55.848;35.916;2023-04-21T10:28:40;99203.75;;;25.57;18.13
76940;BME280;65885;55.848;35.916;2023-04-21T10:31:18;99199.50;;;25.38;18.28
76940;BME280;65885;55.848;35.916;2023-04-21T10:34:12;99181.69;;;25.21;18.66
76940;BME280;65885;55.848;35.916;2023-04-21T10:36:59;99193.91;;;25.15;18.48
76940;BME280;65885;55.848;35.916;2023-04-21T10:39:34;99189.38;;;25.16;18.84
76940;BME280;65885;55.848;35.916;2023-04-21T10:42:20;99183.69;;;25.19;19.15
76940;BME280;65885;55.848;35.916;2023-04-21T10:45:00;99182.06;;;25.34;19.01
76940;BME280;65885;55.848;35.916;2023-04-21T10:47:38;99188.47;;;25.58;19.41
76940;BME280;65885;55.848;35.916;2023-04-21T10:50:12;99169.41;;;25.85;19.40
76940;BME280;65885;55.848;35.916;2023-04-21T10:52:45;99168.34;;;26.19;19.10
76940;BME280;65885;55.848;35.916;2023-04-21T10:55:13;99167.84;;;26.48;19.06
76940;BME280;65885;55.848;35.916;2023-04-21T10:57:43;99166.06;;;26.71;18.42
76940;BME280;65885;55.848;35.916;2023-04-21T11:00:15;99163.78;;;26.99;18.96
76940;BME280;65885;55.848;35.916;2023-04-21T11:02:44;99164.56;;;27.16;18.08
76940;BME280;65885;55.848;35.916;2023-04-21T11:05:19;99168.53;;;27.28;17.96
76940;BME280;65885;55.848;35.916;2023-04-21T11:07:48;99154.22;;;27.28;17.34
76940;BME280;65885;55.848;35.916;2023-04-21T11:10:15;99157.00;;;27.03;17.10
76940;BME280;65885;55.848;35.916;2023-04-21T11:12:43;99152.13;;;26.60;16.93
76940;BME280;65885;55.848;35.916;2023-04-21T11:15:11;99155.94;;;26.18;17.35
76940;BME280;65885;55.848;35.916;2023-04-21T11:17:40;99157.13;;;25.83;18.01
76940;BME280;65885;55.848;35.916;2023-04-21T11:20:12;99144.97;;;25.54;18.34
76940;BME280;65885;55.848;35.916;2023-04-21T11:22:40;99143.63;;;25.42;18.76
76940;BME280;65885;55.848;35.916;2023-04-21T11:25:17;99141.44;;;25.54;18.85
76940;BME280;65885;55.848;35.916;2023-04-21T11:27:52;99123.19;;;25.73;18.97
76940;BME280;65885;55.848;35.916;2023-04-21T11:30:21;99141.66;;;26.01;19.16
76940;BME280;65885;55.848;35.916;2023-04-21T11:32:57;99142.63;;;26.24;18.39
76940;BME280;65885;55.848;35.916;2023-04-21T11:35:24;99135.06;;;26.20;17.84
76940;BME280;65885;55.848;35.916;2023-04-21T11:37:52;99136.78;;;26.05;17.57
76940;BME280;65885;55.848;35.916;2023-04-21T11:40:22;99137.47;;;25.82;17.55
76940;BME280;65885;55.848;35.916;2023-04-21T11:42:50;99127.72;;;25.57;18.07
76940;BME280;65885;55.848;35.916;2023-04-21T11:45:18;99123.28;;;25.31;18.18
76940;BME280;65885;55.848;35.916;2023-04-21T11:47:47;99124.78;;;25.09;18.11
76940;BME280;65885;55.848;35.916;2023-04-21T11:50:29;99124.63;;;24.77;18.09
76940;BME280;65885;55.848;35.916;2023-04-21T11:52:58;99121.63;;;24.38;18.55
76940;BME280;65885;55.848;35.916;2023-04-21T11:55:29;99127.38;;;23.99;19.42
76940;BME280;65885;55.848;35.916;2023-04-21T11:57:58;99120.63;;;23.69;19.52
76940;BME280;65885;55.848;35.916;2023-04-21T12:00:29;99118.44;;;23.54;19.95
76940;BME280;65885;55.848;35.916;2023-04-21T12:02:56;99109.25;;;23.57;20.03
76940;BME280;65885;55.848;35.916;2023-04-21T12:05:24;99104.38;;;23.70;20.34
76940;BME280;65885;55.848;35.916;2023-04-21T12:07:55;99108.81;;;23.79;19.73
76940;BME280;65885;55.848;35.916;2023-04-21T12:10:22;99116.97;;;23.96;20.21
76940;BME280;65885;55.848;35.916;2023-04-21T12:12:51;99112.41;;;24.14;19.72
76940;BME280;65885;55.848;35.916;2023-04-21T12:15:19;99100.06;;;24.21;19.80
76940;BME280;65885;55.848;35.916;2023-04-21T12:17:49;99113.25;;;24.15;19.90
76940;BME280;65885;55.848;35.916;2023-04-21T12:20:18;99112.13;;;23.99;19.82
76940;BME280;65885;55.848;35.916;2023-04-21T12:22:47;99107.06;;;23.70;19.76
76940;BME280;65885;55.848;35.916;2023-04-21T12:25:14;99106.00;;;23.45;19.97
76940;BME280;65885;55.848;35.916;2023-04-21T12:27:47;99106.84;;;23.28;19.97
76940;BME280;65885;55.848;35.916;2023-04-21T12:30:17;99104.53;;;23.15;20.42
76940;BME280;65885;55.848;35.916;2023-04-21T12:32:46;99095.88;;;23.04;20.21
76940;BME280;65885;55.848;35.916;2023-04-21T12:35:13;99091.03;;;22.89;20.74
76940;BME280;65885;55.848;35.916;2023-04-21T12:37:41;99094.34;;;22.74;20.67
76940;BME280;65885;55.848;35.916;2023-04-21T12:40:09;99092.47;;;22.56;20.94
76940;BME280;65885;55.848;35.916;2023-04-21T12:42:36;99087.47;;;22.43;21.29
76940;BME280;65885;55.848;35.916;2023-04-21T12:45:05;99093.44;;;22.28;21.20
76940;BME280;65885;55.848;35.916;2023-04-21T12:47:36;99087.19;;;22.09;21.48
76940;BME280;65885;55.848;35.916;2023-04-21T12:50:04;99085.13;;;21.84;21.77
76940;BME280;65885;55.848;35.916;2023-04-21T12:52:32;99087.00;;;21.54;21.87
76940;BME280;65885;55.848;35.916;2023-04-21T12:55:00;99082.91;;;21.31;22.50
76940;BME280;65885;55.848;35.916;2023-04-21T12:57:27;99085.00;;;21.18;22.43
76940;BME280;65885;55.848;35.916;2023-04-21T12:59:56;99083.19;;;21.09;22.26
76940;BME280;65885;55.848;35.916;2023-04-21T13:02:24;99076.97;;;20.98;22.53
76940;BME280;65885;55.848;35.916;2023-04-21T13:04:53;99074.59;;;20.86;22.87